This is the latest recevied weather packets stored in our database for station/object SP3PDK-1. If no packets are shown the sender has not sent any weather packets the latest 10 day(s).
| Time | Temp. | Humidity | Pressure | Rain* | Wind** | Luminosity | Snow |
|---|---|---|---|---|---|---|---|
| 1777285458 | 15.56° C | 27% | 1023.2 hPa | - | - | - | - |
| 1777284853 | 15.56° C | 26% | 1023.3 hPa | - | - | - | - |
| 1777284254 | 16.11° C | 25% | 1023.3 hPa | - | - | - | - |
| 1777283657 | 16.11° C | 25% | 1023.5 hPa | - | - | - | - |
| 1777283058 | 15° C | 24% | 1023.6 hPa | - | - | - | - |
| 1777282454 | 15° C | 25% | 1023.7 hPa | - | - | - | - |
| 1777281854 | 15.56° C | 25% | 1023.8 hPa | - | - | - | - |
| 1777281254 | 15° C | 24% | 1023.9 hPa | - | - | - | - |
| 1777280654 | 14.44° C | 25% | 1024 hPa | - | - | - | - |
| 1777280058 | 14.44° C | 25% | 1024 hPa | - | - | - | - |
| 1777279458 | 14.44° C | 25% | 1024.1 hPa | - | - | - | - |
| 1777278854 | 13.89° C | 25% | 1024.2 hPa | - | - | - | - |
| 1777278259 | 13.89° C | 26% | 1024.1 hPa | - | - | - | - |
| 1777277658 | 14.44° C | 26% | 1024.1 hPa | - | - | - | - |
| 1777276454 | 13.33° C | 26% | 1024.2 hPa | - | - | - | - |
| 1777275854 | 13.89° C | 27% | 1024.2 hPa | - | - | - | - |
| 1777275254 | 14.44° C | 25% | 1024.2 hPa | - | - | - | - |
| 1777274654 | 15.56° C | 42% | 1024.2 hPa | - | - | - | - |
| 1777274059 | 13.33° C | 28% | 1024.3 hPa | - | - | - | - |
| 1777272857 | 13.33° C | 30% | 1024.2 hPa | - | - | - | - |
| 1777272258 | 12.78° C | 31% | 1024.3 hPa | - | - | - | - |
| 1777271654 | 11.67° C | 34% | 1024.4 hPa | - | - | - | - |
| 1777271054 | 11.11° C | 36% | 1024.4 hPa | - | - | - | - |
| 1777269856 | 10.56° C | 36% | 1024.5 hPa | - | - | - | - |
| 1777269256 | 11.11° C | 38% | 1024.4 hPa | - | - | - | - |
* Rain since midnight (hover to see other rain measurements)
** Current wind speed in m/s (hover to see current wind gust speed)